Time;durP1;ratioP1;P1;durP2;ratioP2;P2;SDS_P1;SDS_P2;PMS_P1;PMS_P2;Temp;Humidity;BMP_temperature;BMP_pressure;BME280_temperature;BME280_humidity;BME280_pressure;Samples;Min_cycle;Max_cycle;Signal;HPM_P1;HPM_P2
2022/06/29 00:00:07;;;;;;;12.33;6.57;;;17.20;99.90;;;;;;5011153;28;20453;-76
2022/06/29 00:02:36;;;;;;;7.00;6.30;;;17.20;99.90;;;;;;4977385;28;20807;-76
2022/06/29 00:05:04;;;;;;;10.90;6.03;;;17.20;99.90;;;;;;4993118;28;20534;-76
2022/06/29 00:07:30;;;;;;;6.90;6.30;;;17.20;99.90;;;;;;5010817;28;20429;-76
2022/06/29 00:09:55;;;;;;;8.40;6.77;;;17.30;99.90;;;;;;5011052;28;20423;-76
2022/06/29 00:12:21;;;;;;;6.97;6.27;;;17.40;99.90;;;;;;5010835;28;20185;-76
2022/06/29 00:14:46;;;;;;;9.90;6.40;;;17.30;99.90;;;;;;4992988;28;20729;-77
2022/06/29 00:17:12;;;;;;;6.47;5.87;;;17.30;99.90;;;;;;5010779;28;20262;-76
2022/06/29 00:19:39;;;;;;;10.63;6.30;;;17.20;99.90;;;;;;4992318;28;20179;-76
2022/06/29 00:22:06;;;;;;;7.33;6.60;;;17.20;99.90;;;;;;5010721;28;20416;-76
2022/06/29 00:24:32;;;;;;;7.60;6.90;;;17.10;99.90;;;;;;5010718;28;20458;-77
2022/06/29 00:26:59;;;;;;;7.83;6.73;;;17.00;99.90;;;;;;4993023;28;20446;-77
2022/06/29 00:29:25;;;;;;;7.00;6.40;;;17.10;99.90;;;;;;4993000;28;20434;-76
2022/06/29 00:31:50;;;;;;;7.50;6.80;;;17.00;99.90;;;;;;5010696;28;20472;-76
2022/06/29 00:34:16;;;;;;;7.13;5.97;;;17.10;99.90;;;;;;4993069;28;20314;-76
2022/06/29 00:36:41;;;;;;;7.67;7.03;;;17.00;99.90;;;;;;5010660;28;20528;-76
2022/06/29 00:39:07;;;;;;;7.13;6.37;;;17.00;99.90;;;;;;5010374;28;20287;-76
2022/06/29 00:41:41;;;;;;;10.70;7.13;;;17.00;99.90;;;;;;5010485;28;20198;-76
2022/06/29 00:44:09;;;;;;;9.00;6.70;;;17.00;99.90;;;;;;4992505;28;20200;-76
2022/06/29 00:46:38;;;;;;;11.03;6.90;;;17.00;99.90;;;;;;5010304;28;20427;-76
2022/06/29 00:49:04;;;;;;;6.87;6.17;;;16.90;99.90;;;;;;5010384;28;20788;-76
2022/06/29 00:51:33;;;;;;;10.20;7.20;;;17.00;99.90;;;;;;4992898;28;20480;-77
2022/06/29 00:54:02;;;;;;;7.43;6.63;;;16.90;99.90;;;;;;5010116;28;20266;-76
2022/06/29 00:56:28;;;;;;;10.73;6.70;;;16.60;99.90;;;;;;5010362;28;20854;-77
2022/06/29 00:58:58;;;;;;;7.37;6.67;;;16.70;99.90;;;;;;4992593;28;20441;-76
2022/06/29 01:01:25;;;;;;;7.03;6.40;;;16.70;99.90;;;;;;4976594;28;20432;-76
2022/06/29 01:03:51;;;;;;;8.07;7.30;;;16.70;99.90;;;;;;4992392;28;20431;-77
2022/06/29 01:06:19;;;;;;;18.93;7.00;;;16.70;99.90;;;;;;5010087;28;20420;-76
2022/06/29 01:08:44;;;;;;;6.97;6.23;;;16.70;99.90;;;;;;4976306;28;20203;-76
2022/06/29 01:11:10;;;;;;;9.83;7.27;;;16.70;99.90;;;;;;4992337;28;20432;-76
2022/06/29 01:13:41;;;;;;;7.87;7.17;;;16.60;99.90;;;;;;5009866;28;20219;-77
2022/06/29 01:16:07;;;;;;;7.83;7.13;;;16.60;99.90;;;;;;5010180;28;20190;-77
2022/06/29 01:18:33;;;;;;;7.87;7.17;;;16.50;99.90;;;;;;5010061;28;20481;-77
2022/06/29 01:21:04;;;;;;;8.13;6.97;;;16.40;99.90;;;;;;5010065;28;20677;-77
2022/06/29 01:23:29;;;;;;;8.10;7.30;;;16.40;99.90;;;;;;5009994;28;20170;-77
2022/06/29 01:25:55;;;;;;;7.97;6.60;;;16.50;99.90;;;;;;4992109;28;20517;-77
2022/06/29 01:28:21;;;;;;;12.50;7.37;;;16.50;99.90;;;;;;5010029;28;20192;-77
2022/06/29 01:30:46;;;;;;;7.03;6.43;;;16.50;99.90;;;;;;5008838;28;20645;-77
2022/06/29 01:33:12;;;;;;;7.67;6.90;;;16.60;99.90;;;;;;4992128;28;20274;-77
2022/06/29 01:35:37;;;;;;;11.70;7.60;;;16.60;99.90;;;;;;4992684;28;20687;-77
2022/06/29 01:38:03;;;;;;;7.70;7.00;;;16.60;99.90;;;;;;5010134;28;20191;-77
2022/06/29 01:40:29;;;;;;;8.30;7.10;;;16.60;99.90;;;;;;4993309;28;20203;-77
2022/06/29 01:42:55;;;;;;;8.83;7.73;;;16.60;99.90;;;;;;5011210;28;20647;-77
2022/06/29 01:45:21;;;;;;;7.43;6.73;;;16.60;99.90;;;;;;5011547;28;20564;-77
2022/06/29 01:47:47;;;;;;;8.57;7.80;;;16.60;99.90;;;;;;5011705;28;20431;-77
2022/06/29 01:50:12;;;;;;;8.80;6.47;;;16.70;99.90;;;;;;5012066;28;20210;-77
2022/06/29 01:52:38;;;;;;;8.43;7.47;;;16.70;99.90;;;;;;4994147;28;20201;-77
2022/06/29 01:55:04;;;;;;;8.33;7.20;;;16.60;99.90;;;;;;5010144;28;20210;-77
2022/06/29 01:57:30;;;;;;;8.20;7.43;;;16.60;99.90;;;;;;4975977;28;20201;-77
2022/06/29 01:59:55;;;;;;;8.60;7.80;;;16.60;99.90;;;;;;4992231;28;20798;-77
2022/06/29 02:02:21;;;;;;;9.00;6.90;;;16.50;99.90;;;;;;5009787;28;20192;-77
2022/06/29 02:04:47;;;;;;;7.87;7.00;;;16.60;99.90;;;;;;5009733;28;20213;-77
2022/06/29 02:07:12;;;;;;;7.13;6.50;;;16.50;99.90;;;;;;4975906;28;20280;-77
2022/06/29 02:09:38;;;;;;;13.03;6.97;;;16.50;99.90;;;;;;4991876;28;20233;-76
2022/06/29 02:12:06;;;;;;;9.13;7.67;;;16.60;99.90;;;;;;5009903;28;20208;-77
2022/06/29 02:14:32;;;;;;;8.70;8.00;;;16.50;99.90;;;;;;4991761;28;20699;-76
2022/06/29 02:16:58;;;;;;;8.13;7.23;;;16.50;99.90;;;;;;4991992;28;20485;-77
2022/06/29 02:19:23;;;;;;;8.90;8.07;;;16.50;99.90;;;;;;5009566;28;20241;-77
2022/06/29 02:21:49;;;;;;;8.53;7.73;;;16.40;99.90;;;;;;5009561;28;20189;-77
2022/06/29 02:24:14;;;;;;;9.93;7.77;;;16.40;99.90;;;;;;4991698;28;20214;-77
2022/06/29 02:26:40;;;;;;;8.47;7.40;;;16.20;99.90;;;;;;5009600;28;20605;-76
2022/06/29 02:29:06;;;;;;;9.00;7.60;;;16.30;99.90;;;;;;4991438;28;20579;-77
2022/06/29 02:37:00;;;;;;;9.30;7.90;;;16.20;99.90;;;;;;5009655;28;20843;-77
2022/06/29 02:39:25;;;;;;;8.73;7.80;;;16.20;99.90;;;;;;4991379;28;20445;-76
2022/06/29 02:41:51;;;;;;;9.23;8.37;;;16.20;99.90;;;;;;5010587;28;20295;-77
2022/06/29 02:44:16;;;;;;;9.10;7.50;;;16.20;99.90;;;;;;4995752;28;20272;-77
2022/06/29 02:46:42;;;;;;;11.03;8.47;;;16.20;99.90;;;;;;5013312;28;20197;-77
2022/06/29 02:49:08;;;;;;;9.63;8.07;;;16.20;99.90;;;;;;4995346;28;20318;-77
2022/06/29 02:51:34;;;;;;;8.87;7.97;;;16.10;99.90;;;;;;4996388;28;20436;-78
2022/06/29 02:53:59;;;;;;;8.73;7.83;;;16.10;99.90;;;;;;4996833;28;20230;-78
2022/06/29 02:56:25;;;;;;;9.83;8.63;;;16.10;99.90;;;;;;5015855;28;20193;-77
2022/06/29 02:58:50;;;;;;;11.03;8.90;;;16.00;99.90;;;;;;4996089;28;20187;-77
2022/06/29 03:01:16;;;;;;;9.97;8.93;;;16.00;99.90;;;;;;4995984;28;20273;-77
2022/06/29 03:03:42;;;;;;;11.40;9.63;;;15.70;99.90;;;;;;4996515;28;20665;-77
2022/06/29 03:06:07;;;;;;;13.07;8.53;;;15.50;99.90;;;;;;5013769;28;20807;-77
2022/06/29 03:08:33;;;;;;;11.63;10.27;;;15.50;99.90;;;;;;5013889;28;20219;-77
2022/06/29 03:10:58;;;;;;;11.93;10.27;;;15.40;99.90;;;;;;4995539;28;20186;-77
2022/06/29 03:13:24;;;;;;;11.90;10.23;;;15.40;99.90;;;;;;4979116;28;20214;-77
2022/06/29 03:15:51;;;;;;;14.60;9.83;;;15.40;99.90;;;;;;4978956;28;20207;-77
2022/06/29 03:18:17;;;;;;;15.33;8.93;;;15.50;99.90;;;;;;4996582;28;20615;-77
2022/06/29 03:20:43;;;;;;;12.33;9.70;;;15.60;99.90;;;;;;4994884;28;20544;-76
2022/06/29 03:23:08;;;;;;;15.20;9.67;;;15.70;99.90;;;;;;4995043;28;20435;-77
2022/06/29 03:25:34;;;;;;;9.93;9.00;;;15.80;99.90;;;;;;4995173;28;20319;-77
2022/06/29 03:28:00;;;;;;;10.10;9.10;;;15.90;99.90;;;;;;5013598;28;20198;-76
2022/06/29 03:30:26;;;;;;;10.73;9.73;;;16.00;99.90;;;;;;5012098;28;20444;-76
2022/06/29 03:32:51;;;;;;;10.33;9.33;;;15.90;99.90;;;;;;5011494;28;20286;-75
2022/06/29 03:35:17;;;;;;;11.33;10.17;;;16.00;99.90;;;;;;4977624;28;20206;-75
2022/06/29 03:37:43;;;;;;;11.83;9.53;;;16.00;99.90;;;;;;4994170;28;20190;-76
2022/06/29 03:40:09;;;;;;;10.77;9.83;;;16.00;99.90;;;;;;4993755;28;20195;-77
2022/06/29 03:42:35;;;;;;;14.03;9.70;;;16.10;99.90;;;;;;5011548;28;20186;-76
2022/06/29 03:45:00;;;;;;;9.97;8.93;;;16.20;99.90;;;;;;4993833;28;20947;-77
2022/06/29 03:47:26;;;;;;;10.63;8.80;;;16.20;99.90;;;;;;5012165;28;20205;-76
2022/06/29 03:49:53;;;;;;;11.67;8.30;;;16.30;99.90;;;;;;4994717;28;20190;-77
2022/06/29 03:52:18;;;;;;;8.70;7.80;;;16.40;99.90;;;;;;4995337;28;20714;-76
2022/06/29 03:54:44;;;;;;;9.07;8.00;;;16.40;99.90;;;;;;5011056;28;20473;-76
2022/06/29 03:57:09;;;;;;;9.90;8.03;;;16.40;99.90;;;;;;5013465;28;20190;-77
2022/06/29 03:59:36;;;;;;;9.80;8.17;;;16.40;99.90;;;;;;4997442;28;20201;-77
2022/06/29 04:02:02;;;;;;;9.70;8.80;;;16.40;99.90;;;;;;4980109;28;20533;-75
2022/06/29 04:04:27;;;;;;;10.63;8.03;;;16.50;99.90;;;;;;4994116;28;20453;-75
2022/06/29 04:06:53;;;;;;;8.80;8.10;;;16.40;99.90;;;;;;5011496;28;20194;-75
2022/06/29 04:09:18;;;;;;;10.17;9.17;;;16.40;99.90;;;;;;5011880;28;20185;-75
2022/06/29 04:11:52;;;;;;;10.70;8.70;;;16.30;99.90;;;;;;5011654;28;20191;-75
2022/06/29 04:14:19;;;;;;;9.70;7.90;;;16.30;99.90;;;;;;4994976;28;20246;-75
2022/06/29 04:16:46;;;;;;;8.50;7.70;;;16.20;99.90;;;;;;4993819;28;20912;-75
2022/06/29 04:19:11;;;;;;;8.47;7.10;;;16.30;99.90;;;;;;4993692;28;20534;-75
2022/06/29 04:21:37;;;;;;;12.43;8.17;;;16.30;99.90;;;;;;5010788;28;20525;-75
2022/06/29 04:24:03;;;;;;;9.83;8.80;;;16.40;99.90;;;;;;5009202;28;20210;-75
2022/06/29 04:26:29;;;;;;;9.30;8.40;;;16.50;99.90;;;;;;5009883;28;20414;-75
2022/06/29 04:28:55;;;;;;;11.50;8.90;;;16.50;99.90;;;;;;4992398;28;20291;-75
2022/06/29 04:31:20;;;;;;;9.50;8.60;;;16.50;99.90;;;;;;5009856;28;20194;-75
2022/06/29 04:33:46;;;;;;;9.13;8.33;;;16.40;99.90;;;;;;5009799;28;20579;-75
2022/06/29 04:36:12;;;;;;;10.70;7.60;;;16.50;99.90;;;;;;4992010;28;20273;-75
2022/06/29 04:38:37;;;;;;;9.10;7.67;;;16.60;99.90;;;;;;4991889;28;20872;-75
2022/06/29 04:41:03;;;;;;;8.73;7.93;;;16.70;99.90;;;;;;4991853;28;21023;-75
2022/06/29 04:43:29;;;;;;;10.10;9.13;;;16.70;99.90;;;;;;4991665;28;20186;-75
2022/06/29 04:48:40;;;;;;;11.13;8.13;;;16.70;99.90;;;;;;5008773;28;20537;-75
2022/06/29 04:51:06;;;;;;;8.10;7.40;;;16.80;99.90;;;;;;5008683;28;20449;-75
2022/06/29 04:53:32;;;;;;;9.57;8.57;;;16.80;99.90;;;;;;5008591;28;20500;-75
2022/06/29 04:55:57;;;;;;;7.93;7.20;;;16.90;99.90;;;;;;5008508;28;20589;-74
2022/06/29 04:58:23;;;;;;;9.23;8.33;;;16.80;99.90;;;;;;5008511;28;20192;-75
2022/06/29 05:00:49;;;;;;;8.37;7.47;;;16.90;99.90;;;;;;4974553;28;20190;-75
2022/06/29 05:03:14;;;;;;;10.20;7.20;;;16.90;99.90;;;;;;4990668;28;20194;-75
2022/06/29 05:05:40;;;;;;;8.43;7.57;;;17.00;99.90;;;;;;5008380;28;20936;-75
2022/06/29 05:08:06;;;;;;;8.73;7.87;;;16.90;99.90;;;;;;4990888;28;20279;-74
2022/06/29 05:10:32;;;;;;;9.47;8.10;;;17.00;99.90;;;;;;5008326;28;20459;-75
2022/06/29 05:12:57;;;;;;;9.63;8.63;;;17.10;99.90;;;;;;4974369;28;20570;-75
2022/06/29 05:15:23;;;;;;;9.40;7.90;;;17.20;99.90;;;;;;4990218;28;20204;-75
2022/06/29 05:17:49;;;;;;;8.63;7.30;;;17.30;99.90;;;;;;5008052;28;20670;-75
2022/06/29 05:20:15;;;;;;;7.80;7.10;;;17.50;99.90;;;;;;5007917;28;20420;-75
2022/06/29 05:22:41;;;;;;;8.27;7.57;;;17.60;99.90;;;;;;4990316;28;20610;-75
2022/06/29 05:25:07;;;;;;;8.13;7.43;;;17.60;99.90;;;;;;4990250;28;20451;-75
2022/06/29 05:27:34;;;;;;;7.63;6.93;;;17.70;99.90;;;;;;5008170;28;20887;-75
2022/06/29 05:29:59;;;;;;;10.57;9.17;;;17.70;99.90;;;;;;4990064;28;20499;-75
2022/06/29 05:32:25;;;;;;;9.80;8.90;;;17.60;99.90;;;;;;5007800;28;20923;-75
2022/06/29 05:34:51;;;;;;;10.73;8.80;;;17.60;99.90;;;;;;4989886;28;20253;-75
2022/06/29 05:37:17;;;;;;;11.10;9.83;;;17.50;99.90;;;;;;5008007;28;20542;-75
2022/06/29 05:39:44;;;;;;;14.67;8.10;;;17.50;99.90;;;;;;4990235;28;20615;-75
2022/06/29 05:42:12;;;;;;;10.63;9.53;;;17.40;99.90;;;;;;4989791;28;20420;-75
2022/06/29 05:44:38;;;;;;;13.27;9.23;;;17.40;99.90;;;;;;5007756;28;20980;-75
2022/06/29 05:47:04;;;;;;;9.30;8.40;;;17.50;99.90;;;;;;5007704;28;20426;-75
2022/06/29 05:49:30;;;;;;;10.10;8.60;;;17.60;99.90;;;;;;4990122;28;20419;-75
2022/06/29 05:51:56;;;;;;;10.27;8.80;;;17.70;99.90;;;;;;4990037;28;20459;-74
2022/06/29 05:54:21;;;;;;;10.13;8.13;;;17.70;99.90;;;;;;5007583;28;20212;-75
2022/06/29 05:56:47;;;;;;;11.77;9.50;;;17.80;99.90;;;;;;5008739;28;20184;-75
2022/06/29 05:59:13;;;;;;;9.57;8.53;;;17.90;99.90;;;;;;5007792;28;20598;-75
2022/06/29 06:01:38;;;;;;;9.00;8.20;;;18.10;99.90;;;;;;5007680;28;20205;-75
2022/06/29 06:04:04;;;;;;;9.53;8.53;;;18.20;99.90;;;;;;5007625;28;20212;-75
2022/06/29 06:06:30;;;;;;;10.20;8.07;;;18.20;99.90;;;;;;4989356;28;20190;-75
2022/06/29 06:08:56;;;;;;;9.10;8.17;;;18.30;99.90;;;;;;5007454;28;20946;-75
2022/06/29 06:11:21;;;;;;;8.13;7.43;;;18.50;99.90;;;;;;5007650;28;20188;-75
2022/06/29 06:13:47;;;;;;;9.80;8.93;;;18.60;99.90;;;;;;5007645;28;20607;-75
2022/06/29 06:16:12;;;;;;;11.67;8.47;;;18.70;99.90;;;;;;5006909;28;20181;-75
2022/06/29 06:18:39;;;;;;;12.57;8.17;;;18.80;99.90;;;;;;5007428;28;20734;-75
2022/06/29 06:21:04;;;;;;;11.00;8.10;;;18.90;99.90;;;;;;4973471;28;20689;-75
2022/06/29 06:23:30;;;;;;;9.40;7.27;;;19.00;99.90;;;;;;5007353;28;20415;-75
2022/06/29 06:25:55;;;;;;;12.70;8.70;;;19.20;99.90;;;;;;5007523;28;20209;-75
2022/06/29 06:28:21;;;;;;;8.90;8.00;;;19.20;99.90;;;;;;5007402;28;20180;-75
2022/06/29 06:30:47;;;;;;;9.20;8.40;;;19.30;99.90;;;;;;5007258;28;20199;-75
2022/06/29 06:33:12;;;;;;;10.57;7.80;;;19.40;99.90;;;;;;4989174;28;20323;-75
2022/06/29 06:35:38;;;;;;;8.90;8.17;;;19.60;99.90;;;;;;5007396;28;20204;-75
2022/06/29 06:38:04;;;;;;;8.43;7.47;;;19.70;99.90;;;;;;5007632;28;20184;-75
2022/06/29 06:43:13;;;;;;;9.00;6.80;;;20.00;99.90;;;;;;5007353;28;20612;-75
2022/06/29 06:45:39;;;;;;;6.60;6.10;;;20.20;99.90;;;;;;4989578;28;20447;-75
2022/06/29 06:48:05;;;;;;;7.60;6.80;;;20.30;99.90;;;;;;5007458;28;20191;-75
2022/06/29 06:50:31;;;;;;;6.53;5.93;;;20.50;99.90;;;;;;5007153;28;20185;-75
2022/06/29 06:52:56;;;;;;;8.20;6.70;;;20.70;99.90;;;;;;5007387;28;20428;-75
2022/06/29 06:55:22;;;;;;;6.63;6.03;;;20.80;99.90;;;;;;5007249;28;20200;-75
2022/06/29 06:57:47;;;;;;;7.57;6.33;;;20.90;99.90;;;;;;4989944;28;20298;-75
2022/06/29 07:00:13;;;;;;;11.00;6.30;;;20.90;99.90;;;;;;4973254;28;20185;-75
2022/06/29 07:02:39;;;;;;;6.57;5.87;;;20.90;99.90;;;;;;5007492;28;20184;-75
2022/06/29 07:05:05;;;;;;;7.10;6.50;;;21.00;99.90;;;;;;4989272;28;20448;-76
2022/06/29 07:07:31;;;;;;;6.30;5.70;;;21.10;99.90;;;;;;5006993;28;20177;-75
2022/06/29 07:09:56;;;;;;;9.50;6.20;;;21.00;99.90;;;;;;5007234;28;20424;-75
2022/06/29 07:12:22;;;;;;;6.23;5.73;;;21.10;99.90;;;;;;5007590;28;20572;-75
2022/06/29 07:14:48;;;;;;;6.27;5.70;;;21.10;99.90;;;;;;5007633;28;20222;-75
2022/06/29 07:17:13;;;;;;;11.73;5.93;;;21.10;99.90;;;;;;4989999;28;20189;-75
2022/06/29 07:19:39;;;;;;;6.10;5.27;;;21.10;99.90;;;;;;4990191;28;20181;-75
2022/06/29 07:22:05;;;;;;;6.53;6.03;;;21.10;99.90;;;;;;5008425;28;20189;-75
2022/06/29 07:24:31;;;;;;;8.33;6.50;;;21.20;99.90;;;;;;5008056;28;20206;-75
2022/06/29 07:26:57;;;;;;;10.60;6.73;;;21.20;99.90;;;;;;5008228;28;20511;-75
2022/06/29 07:29:23;;;;;;;7.80;5.33;;;21.20;99.90;;;;;;4992672;28;20534;-75
2022/06/29 07:31:48;;;;;;;7.83;6.00;;;21.20;99.90;;;;;;4994736;28;20247;-75
2022/06/29 07:34:14;;;;;;;9.13;5.80;;;21.30;99.90;;;;;;5012227;28;20236;-75
2022/06/29 07:36:40;;;;;;;6.73;6.10;;;21.40;99.90;;;;;;4994705;28;20235;-75
2022/06/29 07:39:05;;;;;;;9.17;6.03;;;21.50;99.90;;;;;;4995490;28;20216;-76
2022/06/29 07:41:31;;;;;;;6.07;5.60;;;21.60;99.90;;;;;;5012911;28;20181;-76
2022/06/29 07:43:57;;;;;;;6.50;5.83;;;21.80;99.90;;;;;;5010774;28;20736;-76
2022/06/29 07:46:22;;;;;;;5.47;4.97;;;22.00;99.90;;;;;;4993219;28;20427;-76
2022/06/29 07:48:48;;;;;;;7.30;5.50;;;22.20;99.90;;;;;;5010880;28;20196;-76
2022/06/29 07:51:14;;;;;;;6.50;5.90;;;22.30;99.90;;;;;;4992529;28;20189;-76
2022/06/29 07:53:40;;;;;;;6.53;5.83;;;22.40;99.90;;;;;;5010054;28;20205;-75
2022/06/29 07:56:05;;;;;;;7.13;5.10;;;22.20;99.90;;;;;;5010363;28;20959;-75
2022/06/29 07:58:31;;;;;;;5.10;4.70;;;22.20;99.90;;;;;;4976876;28;20193;-75
2022/06/29 08:00:57;;;;;;;6.93;5.33;;;22.40;99.90;;;;;;4993490;28;20606;-75
2022/06/29 08:03:23;;;;;;;5.50;4.90;;;22.60;99.90;;;;;;5014665;28;21059;-76
2022/06/29 08:05:48;;;;;;;5.63;5.23;;;22.90;99.90;;;;;;5011083;28;20206;-76
2022/06/29 08:08:15;;;;;;;5.20;4.70;;;23.00;99.90;;;;;;5011201;28;20247;-75
2022/06/29 08:10:41;;;;;;;5.00;4.53;;;23.10;99.90;;;;;;5011222;28;20247;-76
2022/06/29 08:13:07;;;;;;;6.87;4.43;;;23.20;99.90;;;;;;5010991;28;20474;-76
2022/06/29 08:15:32;;;;;;;5.40;5.00;;;23.20;99.90;;;;;;4992939;28;20206;-76
2022/06/29 08:17:58;;;;;;;7.73;5.50;;;23.10;99.90;;;;;;5010733;28;20221;-76
2022/06/29 08:20:25;;;;;;;9.93;5.10;;;23.00;99.90;;;;;;5010696;28;20186;-75
2022/06/29 08:22:50;;;;;;;6.23;5.60;;;23.00;99.90;;;;;;5010700;28;20448;-75
2022/06/29 08:25:16;;;;;;;5.73;5.23;;;23.10;99.90;;;;;;5010437;28;20564;-76
2022/06/29 08:27:42;;;;;;;9.70;5.20;;;23.30;99.90;;;;;;5010448;28;20650;-75
2022/06/29 08:30:09;;;;;;;6.00;5.50;;;23.50;99.90;;;;;;5010520;28;20185;-76
2022/06/29 08:32:34;;;;;;;5.73;5.13;;;23.80;99.90;;;;;;5010221;28;20289;-76
2022/06/29 08:35:01;;;;;;;7.77;5.30;;;24.00;99.90;;;;;;4992322;28;21054;-76
2022/06/29 08:37:28;;;;;;;7.30;5.83;;;24.10;99.90;;;;;;5010082;28;20289;-76
2022/06/29 08:39:54;;;;;;;6.40;5.90;;;24.10;99.90;;;;;;5008978;28;20468;-76
2022/06/29 08:42:23;;;;;;;6.20;5.70;;;24.00;99.90;;;;;;5009565;28;21299;-76
2022/06/29 08:44:50;;;;;;;5.73;4.83;;;23.90;99.90;;;;;;5009108;28;20462;-76
2022/06/29 08:47:16;;;;;;;9.20;5.50;;;23.80;99.90;;;;;;5009017;28;20424;-76
2022/06/29 08:49:44;;;;;;;6.50;5.97;;;23.80;99.90;;;;;;4991324;28;20500;-76
2022/06/29 08:52:10;;;;;;;5.30;4.90;;;23.80;99.90;;;;;;4991214;28;20436;-76
2022/06/29 08:54:40;;;;;;;4.90;4.50;;;23.80;99.90;;;;;;5008723;28;20482;-76
2022/06/29 08:57:07;;;;;;;5.97;5.50;;;23.80;99.90;;;;;;5008763;28;20491;-75
2022/06/29 08:59:36;;;;;;;7.37;6.07;;;24.00;99.90;;;;;;4990990;28;20454;-76
2022/06/29 09:02:02;;;;;;;7.00;6.40;;;24.30;99.90;;;;;;5008755;28;20423;-76
2022/06/29 09:04:28;;;;;;;9.57;5.73;;;24.30;99.90;;;;;;5008476;28;20525;-76
2022/06/29 09:06:55;;;;;;;5.43;4.93;;;24.20;99.90;;;;;;5009465;28;21021;-76
2022/06/29 09:09:22;;;;;;;5.77;5.37;;;24.30;99.90;;;;;;4993244;28;20831;-76
2022/06/29 09:11:50;;;;;;;5.20;4.63;;;24.50;99.90;;;;;;5009812;28;20526;-76
2022/06/29 09:14:18;;;;;;;5.50;5.00;;;24.60;99.90;;;;;;5010906;28;20482;-76
2022/06/29 09:16:53;;;;;;;5.40;4.90;;;24.70;99.90;;;;;;4992379;28;20423;-77
2022/06/29 09:19:24;;;;;;;9.90;4.97;;;24.70;99.90;;;;;;5010009;28;20418;-76
2022/06/29 09:21:52;;;;;;;11.40;4.83;;;24.80;99.90;;;;;;5009100;28;20428;-76
2022/06/29 09:24:23;;;;;;;5.97;5.40;;;25.20;99.90;;;;;;5008914;28;21278;-76
2022/06/29 09:26:55;;;;;;;6.57;5.93;;;25.00;99.90;;;;;;5009306;28;20432;-77
2022/06/29 09:29:23;;;;;;;6.70;5.10;;;25.20;99.90;;;;;;4991875;28;20439;-76
2022/06/29 09:32:01;;;;;;;6.20;5.60;;;25.00;99.90;;;;;;4992222;28;20494;-76
2022/06/29 09:34:49;;;;;;;5.97;5.47;;;24.80;99.90;;;;;;5010362;28;20474;-76
2022/06/29 09:37:20;;;;;;;5.60;5.10;;;24.60;99.90;;;;;;5009267;28;20420;-76
2022/06/29 09:39:50;;;;;;;5.27;4.73;;;24.30;99.90;;;;;;5008857;28;20439;-76
2022/06/29 09:42:18;;;;;;;5.53;5.13;;;24.50;99.90;;;;;;5009434;28;20548;-76
2022/06/29 09:44:45;;;;;;;6.13;4.73;;;25.10;99.90;;;;;;5008910;28;20443;-76
2022/06/29 09:47:15;;;;;;;6.13;5.47;;;25.70;99.90;;;;;;5008467;28;20469;-76
2022/06/29 09:49:43;;;;;;;4.53;4.23;;;25.50;99.90;;;;;;4990920;28;20427;-76
2022/06/29 09:52:09;;;;;;;7.43;4.30;;;26.20;99.90;;;;;;5007364;28;20514;-76
2022/06/29 09:54:45;;;;;;;4.37;3.97;;;26.80;99.90;;;;;;5007799;28;20568;-76
2022/06/29 09:57:12;;;;;;;8.90;4.53;;;27.30;99.90;;;;;;5007929;28;20472;-76
2022/06/29 10:02:40;;;;;;;4.80;4.30;;;27.70;99.90;;;;;;5009632;28;20427;-76
2022/06/29 10:08:17;;;;;;;5.17;4.70;;;28.50;99.90;;;;;;5008664;28;20454;-76
2022/06/29 10:10:46;;;;;;;4.73;4.23;;;28.70;99.90;;;;;;5011007;28;20435;-76
2022/06/29 10:16:33;;;;;;;5.27;4.80;;;28.80;99.90;;;;;;5008376;28;20410;-77
2022/06/29 10:19:21;;;;;;;5.47;5.07;;;28.80;99.90;;;;;;4989994;28;20431;-77
2022/06/29 10:21:47;;;;;;;4.30;4.00;;;28.70;98.70;;;;;;4992813;28;20447;-77
2022/06/29 10:24:16;;;;;;;9.40;3.77;;;28.80;99.90;;;;;;4991389;28;20773;-78
2022/06/29 10:26:43;;;;;;;5.97;3.60;;;29.20;98.80;;;;;;5008258;28;20466;-77
2022/06/29 10:29:08;;;;;;;3.77;3.47;;;29.30;98.10;;;;;;5008315;28;20424;-76
2022/06/29 10:32:13;;;;;;;7.07;3.43;;;29.30;95.60;;;;;;5008453;28;20416;-77
2022/06/29 10:35:22;;;;;;;4.00;3.50;;;29.40;94.90;;;;;;4909347;29;20241;-77
2022/06/29 10:37:29;;;;;;;4.00;3.10;;;29.50;95.20;;;;;;5001815;28;20424;-77
2022/06/29 10:39:58;;;;;;;5.10;3.70;;;29.60;94.40;;;;;;5008615;28;20435;-77
2022/06/29 10:45:17;;;;;;;3.87;3.20;;;29.90;94.80;;;;;;5008752;28;20434;-76
2022/06/29 10:47:55;;;;;;;10.10;3.80;;;30.10;95.00;;;;;;5008719;28;20426;-77
2022/06/29 10:50:25;;;;;;;4.03;3.63;;;30.20;96.30;;;;;;4990990;28;20858;-76
2022/06/29 10:53:11;;;;;;;3.90;3.30;;;30.30;94.80;;;;;;4991414;28;20420;-76
2022/06/29 10:55:40;;;;;;;7.33;3.10;;;30.50;93.70;;;;;;5007941;28;20454;-76
2022/06/29 10:58:06;;;;;;;3.90;3.10;;;30.70;94.00;;;;;;4990253;28;20925;-76
2022/06/29 11:00:53;;;;;;;6.57;3.40;;;30.70;92.90;;;;;;5007635;28;20466;-76
2022/06/29 11:03:25;;;;;;;3.07;2.77;;;30.30;92.50;;;;;;4976020;28;20805;-76
2022/06/29 11:16:58;;;;;;;3.17;2.97;;;28.30;99.90;;;;;;5011180;28;20947;-74
2022/06/29 11:19:32;;;;;;;7.80;3.90;;;27.90;99.90;;;;;;5010797;28;20415;-75
2022/06/29 11:22:11;;;;;;;8.53;3.13;;;27.70;99.90;;;;;;5011424;28;20426;-74
2022/06/29 11:24:57;;;;;;;3.23;3.03;;;27.60;99.90;;;;;;5011208;28;20815;-74
2022/06/29 11:27:39;;;;;;;3.80;3.50;;;27.50;99.90;;;;;;5011353;28;20419;-74
2022/06/29 11:30:07;;;;;;;4.90;3.60;;;27.40;99.90;;;;;;5011071;28;20447;-74
2022/06/29 11:32:41;;;;;;;6.33;3.13;;;27.20;99.90;;;;;;5011146;28;20522;-74
2022/06/29 11:35:08;;;;;;;6.70;3.87;;;27.20;99.90;;;;;;5010928;28;20480;-74
2022/06/29 11:37:34;;;;;;;6.47;3.03;;;27.10;99.90;;;;;;4993026;28;20944;-75
2022/06/29 11:40:00;;;;;;;4.27;3.20;;;27.30;99.90;;;;;;5010868;28;20444;-74
2022/06/29 11:45:17;;;;;;;3.40;3.10;;;27.60;99.90;;;;;;5010673;28;20550;-75
2022/06/29 11:47:50;;;;;;;7.20;3.97;;;27.80;99.90;;;;;;5010108;28;21192;-74
2022/06/29 11:50:16;;;;;;;3.87;3.50;;;27.60;99.90;;;;;;4992335;28;20189;-74
2022/06/29 11:52:45;;;;;;;5.90;3.50;;;27.60;99.90;;;;;;5010292;28;20416;-74
2022/06/29 11:55:10;;;;;;;5.37;4.20;;;28.00;99.90;;;;;;5009976;28;20229;-74
2022/06/29 11:57:36;;;;;;;4.67;3.67;;;28.50;99.90;;;;;;4976135;28;20435;-74
2022/06/29 12:00:07;;;;;;;3.80;3.40;;;28.50;99.90;;;;;;5010273;28;20189;-74
2022/06/29 12:02:34;;;;;;;4.40;3.20;;;28.40;99.90;;;;;;5010426;28;20446;-74
2022/06/29 12:05:01;;;;;;;3.63;3.13;;;28.20;99.90;;;;;;5010083;28;20444;-74
2022/06/29 12:07:28;;;;;;;5.13;3.43;;;28.40;99.90;;;;;;5010035;28;20478;-75
2022/06/29 12:09:55;;;;;;;5.87;4.13;;;28.80;99.90;;;;;;5009649;28;20996;-74
2022/06/29 12:12:21;;;;;;;5.20;4.30;;;28.40;99.90;;;;;;5010247;28;20416;-74
2022/06/29 12:14:47;;;;;;;4.13;3.73;;;27.70;98.80;;;;;;5009023;28;20578;-74
2022/06/29 12:17:14;;;;;;;6.03;3.80;;;27.70;99.90;;;;;;5009954;28;20408;-74
2022/06/29 12:19:40;;;;;;;5.93;3.40;;;27.70;99.90;;;;;;4992769;28;20440;-74
2022/06/29 12:22:07;;;;;;;4.13;3.73;;;28.20;99.90;;;;;;5010885;28;20450;-74
2022/06/29 12:24:33;;;;;;;4.00;3.70;;;28.90;99.90;;;;;;5010949;28;20462;-74
2022/06/29 12:26:59;;;;;;;4.40;3.47;;;29.10;99.40;;;;;;4992630;28;20478;-74
2022/06/29 12:29:24;;;;;;;4.90;3.80;;;29.30;98.20;;;;;;5010773;28;21270;-74
2022/06/29 12:31:50;;;;;;;4.80;3.83;;;29.80;98.60;;;;;;4975829;28;20197;-75
2022/06/29 12:34:16;;;;;;;3.43;3.23;;;29.80;96.80;;;;;;5009667;28;20227;-75
2022/06/29 12:36:42;;;;;;;4.13;3.30;;;29.90;97.40;;;;;;4992617;28;20181;-75
2022/06/29 12:39:09;;;;;;;3.47;3.17;;;30.10;95.60;;;;;;5009482;28;20451;-75
2022/06/29 12:41:36;;;;;;;4.57;3.27;;;30.10;97.40;;;;;;5010364;28;20959;-74
2022/06/29 12:44:02;;;;;;;5.17;3.93;;;30.20;95.70;;;;;;5009633;28;20450;-75
2022/06/29 12:46:33;;;;;;;4.70;3.43;;;30.20;96.80;;;;;;5009510;28;21208;-74
2022/06/29 12:49:03;;;;;;;6.23;3.40;;;30.40;95.60;;;;;;5009987;28;20503;-75
2022/06/29 12:51:30;;;;;;;4.87;3.30;;;30.40;94.60;;;;;;5010423;28;20781;-75
2022/06/29 12:53:55;;;;;;;5.87;3.93;;;30.50;94.10;;;;;;4991321;28;20464;-75
2022/06/29 12:56:21;;;;;;;5.10;3.80;;;30.60;94.80;;;;;;4991573;28;20461;-75
2022/06/29 12:58:47;;;;;;;3.70;3.40;;;30.70;94.20;;;;;;5009283;28;20665;-74
2022/06/29 13:01:12;;;;;;;3.93;3.60;;;30.60;92.20;;;;;;4992055;28;20200;-75
2022/06/29 13:03:38;;;;;;;5.40;3.90;;;30.50;94.50;;;;;;5009353;28;20193;-75
2022/06/29 13:06:05;;;;;;;4.60;4.10;;;30.20;92.90;;;;;;5009742;28;20248;-75
2022/06/29 13:08:31;;;;;;;5.33;3.57;;;30.10;95.80;;;;;;5009917;28;20446;-75
2022/06/29 13:10:59;;;;;;;6.37;3.40;;;30.20;93.20;;;;;;5010254;28;20965;-75
2022/06/29 13:13:25;;;;;;;4.50;3.63;;;30.20;95.50;;;;;;5010117;28;20690;-75
2022/06/29 13:15:51;;;;;;;4.23;3.87;;;29.50;91.80;;;;;;5010424;28;20436;-75
2022/06/29 13:18:18;;;;;;;3.83;3.63;;;29.50;92.80;;;;;;5010246;28;20474;-75
2022/06/29 13:20:44;;;;;;;7.53;3.83;;;29.70;94.90;;;;;;4976317;28;20186;-75